sensor_id;sensor_type;location;lat;lon;timestamp;temperature;humidity
19085;DHT22;9675;51.538;6.728;2023-08-17T00:02:23;23.00;99.90
19085;DHT22;9675;51.538;6.728;2023-08-17T00:04:50;23.00;99.90
19085;DHT22;9675;51.538;6.728;2023-08-17T00:07:17;22.90;99.90
19085;DHT22;9675;51.538;6.728;2023-08-17T00:09:46;22.90;99.90
19085;DHT22;9675;51.538;6.728;2023-08-17T00:12:13;22.90;99.90
19085;DHT22;9675;51.538;6.728;2023-08-17T00:14:40;22.80;99.90
19085;DHT22;9675;51.538;6.728;2023-08-17T00:17:07;22.80;99.90
19085;DHT22;9675;51.538;6.728;2023-08-17T00:19:34;22.80;99.90
19085;DHT22;9675;51.538;6.728;2023-08-17T00:22:01;22.80;99.90
19085;DHT22;9675;51.538;6.728;2023-08-17T00:24:28;22.80;99.90
19085;DHT22;9675;51.538;6.728;2023-08-17T00:26:56;22.80;99.90
19085;DHT22;9675;51.538;6.728;2023-08-17T00:29:23;22.80;99.90
19085;DHT22;9675;51.538;6.728;2023-08-17T00:31:50;22.80;99.90
19085;DHT22;9675;51.538;6.728;2023-08-17T00:34:18;22.80;99.90
19085;DHT22;9675;51.538;6.728;2023-08-17T00:36:45;22.70;99.90
19085;DHT22;9675;51.538;6.728;2023-08-17T00:39:12;22.70;99.90
19085;DHT22;9675;51.538;6.728;2023-08-17T00:41:40;22.60;99.90
19085;DHT22;9675;51.538;6.728;2023-08-17T00:44:08;22.60;99.90
19085;DHT22;9675;51.538;6.728;2023-08-17T00:46:35;22.60;99.90
19085;DHT22;9675;51.538;6.728;2023-08-17T00:49:03;22.50;99.90
19085;DHT22;9675;51.538;6.728;2023-08-17T00:51:31;22.50;99.90
19085;DHT22;9675;51.538;6.728;2023-08-17T00:54:01;22.40;99.90
19085;DHT22;9675;51.538;6.728;2023-08-17T00:56:29;22.40;99.90
19085;DHT22;9675;51.538;6.728;2023-08-17T00:58:56;22.40;99.90
19085;DHT22;9675;51.538;6.728;2023-08-17T01:01:25;22.30;99.90
19085;DHT22;9675;51.538;6.728;2023-08-17T01:03:52;22.30;99.90
19085;DHT22;9675;51.538;6.728;2023-08-17T01:06:19;22.20;99.90
19085;DHT22;9675;51.538;6.728;2023-08-17T01:08:46;22.20;99.90
19085;DHT22;9675;51.538;6.728;2023-08-17T01:11:20;22.20;99.90
19085;DHT22;9675;51.538;6.728;2023-08-17T01:13:59;22.10;99.90
19085;DHT22;9675;51.538;6.728;2023-08-17T01:16:36;22.20;99.90
19085;DHT22;9675;51.538;6.728;2023-08-17T01:19:08;22.10;99.90
19085;DHT22;9675;51.538;6.728;2023-08-17T01:21:40;22.10;99.90
19085;DHT22;9675;51.538;6.728;2023-08-17T01:24:10;22.10;99.90
19085;DHT22;9675;51.538;6.728;2023-08-17T01:26:38;22.10;99.90
19085;DHT22;9675;51.538;6.728;2023-08-17T01:29:05;22.10;99.90
19085;DHT22;9675;51.538;6.728;2023-08-17T01:31:39;22.00;99.90
19085;DHT22;9675;51.538;6.728;2023-08-17T01:34:15;22.00;99.90
19085;DHT22;9675;51.538;6.728;2023-08-17T01:36:50;22.00;99.90
19085;DHT22;9675;51.538;6.728;2023-08-17T01:39:30;22.00;99.90
19085;DHT22;9675;51.538;6.728;2023-08-17T01:42:01;22.00;99.90
19085;DHT22;9675;51.538;6.728;2023-08-17T01:44:29;21.90;99.90
19085;DHT22;9675;51.538;6.728;2023-08-17T01:46:56;21.90;99.90
19085;DHT22;9675;51.538;6.728;2023-08-17T01:49:23;21.90;99.90
19085;DHT22;9675;51.538;6.728;2023-08-17T01:51:50;21.90;99.90
19085;DHT22;9675;51.538;6.728;2023-08-17T01:54:18;21.80;99.90
19085;DHT22;9675;51.538;6.728;2023-08-17T01:56:46;21.80;99.90
19085;DHT22;9675;51.538;6.728;2023-08-17T01:59:13;21.80;99.90
19085;DHT22;9675;51.538;6.728;2023-08-17T02:01:40;21.80;99.90
19085;DHT22;9675;51.538;6.728;2023-08-17T02:04:07;21.70;99.90
19085;DHT22;9675;51.538;6.728;2023-08-17T02:06:34;21.70;99.90
19085;DHT22;9675;51.538;6.728;2023-08-17T02:09:01;21.70;99.90
19085;DHT22;9675;51.538;6.728;2023-08-17T02:11:28;21.70;99.90
19085;DHT22;9675;51.538;6.728;2023-08-17T02:13:57;21.60;99.90
19085;DHT22;9675;51.538;6.728;2023-08-17T02:16:24;21.60;99.90
19085;DHT22;9675;51.538;6.728;2023-08-17T02:18:52;21.60;99.90
19085;DHT22;9675;51.538;6.728;2023-08-17T02:21:19;21.50;99.90
19085;DHT22;9675;51.538;6.728;2023-08-17T02:23:46;21.60;99.90
19085;DHT22;9675;51.538;6.728;2023-08-17T02:26:13;21.50;99.90
19085;DHT22;9675;51.538;6.728;2023-08-17T02:28:40;21.50;99.90
19085;DHT22;9675;51.538;6.728;2023-08-17T02:31:08;21.50;99.90
19085;DHT22;9675;51.538;6.728;2023-08-17T02:33:35;21.40;99.90
19085;DHT22;9675;51.538;6.728;2023-08-17T02:36:02;21.40;99.90
19085;DHT22;9675;51.538;6.728;2023-08-17T02:38:29;21.40;99.90
19085;DHT22;9675;51.538;6.728;2023-08-17T02:40:56;21.40;99.90
19085;DHT22;9675;51.538;6.728;2023-08-17T02:43:23;21.40;99.90
19085;DHT22;9675;51.538;6.728;2023-08-17T02:45:51;21.40;99.90
19085;DHT22;9675;51.538;6.728;2023-08-17T02:48:19;21.40;99.90
19085;DHT22;9675;51.538;6.728;2023-08-17T02:50:46;21.40;99.90
19085;DHT22;9675;51.538;6.728;2023-08-17T02:53:13;21.40;99.90
19085;DHT22;9675;51.538;6.728;2023-08-17T02:55:40;21.40;99.90
19085;DHT22;9675;51.538;6.728;2023-08-17T02:58:07;21.30;99.90
19085;DHT22;9675;51.538;6.728;2023-08-17T03:00:34;21.30;99.90
19085;DHT22;9675;51.538;6.728;2023-08-17T03:03:01;21.30;99.90
19085;DHT22;9675;51.538;6.728;2023-08-17T03:05:30;21.30;99.90
19085;DHT22;9675;51.538;6.728;2023-08-17T03:07:57;21.20;99.90
19085;DHT22;9675;51.538;6.728;2023-08-17T03:10:24;21.20;99.90
19085;DHT22;9675;51.538;6.728;2023-08-17T03:12:51;21.20;99.90
19085;DHT22;9675;51.538;6.728;2023-08-17T03:15:18;21.20;99.90
19085;DHT22;9675;51.538;6.728;2023-08-17T03:17:45;21.20;99.90
19085;DHT22;9675;51.538;6.728;2023-08-17T03:20:12;21.10;99.90
19085;DHT22;9675;51.538;6.728;2023-08-17T03:22:40;21.10;99.90
19085;DHT22;9675;51.538;6.728;2023-08-17T03:25:08;21.10;99.90
19085;DHT22;9675;51.538;6.728;2023-08-17T03:27:35;21.10;99.90
19085;DHT22;9675;51.538;6.728;2023-08-17T03:30:03;21.10;99.90
19085;DHT22;9675;51.538;6.728;2023-08-17T03:32:31;21.00;99.90
19085;DHT22;9675;51.538;6.728;2023-08-17T03:34:58;21.00;99.90
19085;DHT22;9675;51.538;6.728;2023-08-17T03:37:25;21.00;99.90
19085;DHT22;9675;51.538;6.728;2023-08-17T03:39:53;21.00;99.90
19085;DHT22;9675;51.538;6.728;2023-08-17T03:42:20;21.00;99.90
19085;DHT22;9675;51.538;6.728;2023-08-17T03:44:47;20.90;99.90
19085;DHT22;9675;51.538;6.728;2023-08-17T03:47:14;20.90;99.90
19085;DHT22;9675;51.538;6.728;2023-08-17T03:49:41;20.90;99.90
19085;DHT22;9675;51.538;6.728;2023-08-17T03:52:08;20.90;99.90
19085;DHT22;9675;51.538;6.728;2023-08-17T03:54:35;20.80;99.90
19085;DHT22;9675;51.538;6.728;2023-08-17T03:57:04;20.80;99.90
19085;DHT22;9675;51.538;6.728;2023-08-17T03:59:31;20.80;99.90
19085;DHT22;9675;51.538;6.728;2023-08-17T04:01:58;20.80;99.90
19085;DHT22;9675;51.538;6.728;2023-08-17T04:04:26;20.80;99.90
19085;DHT22;9675;51.538;6.728;2023-08-17T04:06:53;20.80;99.90
19085;DHT22;9675;51.538;6.728;2023-08-17T04:09:20;20.70;99.90
19085;DHT22;9675;51.538;6.728;2023-08-17T04:11:47;20.70;99.90
19085;DHT22;9675;51.538;6.728;2023-08-17T04:14:15;20.70;99.90
19085;DHT22;9675;51.538;6.728;2023-08-17T04:16:42;20.70;99.90
19085;DHT22;9675;51.538;6.728;2023-08-17T04:19:09;20.70;99.90
19085;DHT22;9675;51.538;6.728;2023-08-17T04:21:36;20.60;99.90
19085;DHT22;9675;51.538;6.728;2023-08-17T04:24:04;20.60;99.90
19085;DHT22;9675;51.538;6.728;2023-08-17T04:26:31;20.60;99.90
19085;DHT22;9675;51.538;6.728;2023-08-17T04:28:59;20.60;99.90
19085;DHT22;9675;51.538;6.728;2023-08-17T04:31:27;20.60;99.90
19085;DHT22;9675;51.538;6.728;2023-08-17T04:33:54;20.60;99.90
19085;DHT22;9675;51.538;6.728;2023-08-17T04:36:21;20.60;99.90
19085;DHT22;9675;51.538;6.728;2023-08-17T04:38:48;20.50;99.90
19085;DHT22;9675;51.538;6.728;2023-08-17T04:41:15;20.50;99.90
19085;DHT22;9675;51.538;6.728;2023-08-17T04:43:43;20.50;99.90
19085;DHT22;9675;51.538;6.728;2023-08-17T04:46:13;20.50;99.90
19085;DHT22;9675;51.538;6.728;2023-08-17T04:48:41;20.50;99.90
19085;DHT22;9675;51.538;6.728;2023-08-17T04:51:08;20.50;99.90
19085;DHT22;9675;51.538;6.728;2023-08-17T04:53:35;20.40;99.90
19085;DHT22;9675;51.538;6.728;2023-08-17T04:56:03;20.40;99.90
19085;DHT22;9675;51.538;6.728;2023-08-17T04:58:30;20.40;99.90
19085;DHT22;9675;51.538;6.728;2023-08-17T05:00:59;20.40;99.90
19085;DHT22;9675;51.538;6.728;2023-08-17T05:03:26;20.40;99.90
19085;DHT22;9675;51.538;6.728;2023-08-17T05:05:54;20.40;99.90
19085;DHT22;9675;51.538;6.728;2023-08-17T05:08:21;20.30;99.90
19085;DHT22;9675;51.538;6.728;2023-08-17T05:10:48;20.40;99.90
19085;DHT22;9675;51.538;6.728;2023-08-17T05:13:15;20.30;99.90
19085;DHT22;9675;51.538;6.728;2023-08-17T05:15:42;20.30;99.90
19085;DHT22;9675;51.538;6.728;2023-08-17T05:18:10;20.30;99.90
19085;DHT22;9675;51.538;6.728;2023-08-17T05:20:37;20.30;99.90
19085;DHT22;9675;51.538;6.728;2023-08-17T05:23:05;20.30;99.90
19085;DHT22;9675;51.538;6.728;2023-08-17T05:25:33;20.30;99.90
19085;DHT22;9675;51.538;6.728;2023-08-17T05:28:00;20.20;99.90
19085;DHT22;9675;51.538;6.728;2023-08-17T05:30:27;20.20;99.90
19085;DHT22;9675;51.538;6.728;2023-08-17T05:32:54;20.30;99.90
19085;DHT22;9675;51.538;6.728;2023-08-17T05:35:21;20.20;99.90
19085;DHT22;9675;51.538;6.728;2023-08-17T05:37:48;20.20;99.90
19085;DHT22;9675;51.538;6.728;2023-08-17T05:40:17;20.20;99.90
19085;DHT22;9675;51.538;6.728;2023-08-17T05:42:44;20.20;99.90
19085;DHT22;9675;51.538;6.728;2023-08-17T05:45:11;20.20;99.90
19085;DHT22;9675;51.538;6.728;2023-08-17T05:47:38;20.20;99.90
19085;DHT22;9675;51.538;6.728;2023-08-17T05:50:06;20.10;99.90
19085;DHT22;9675;51.538;6.728;2023-08-17T05:52:34;20.10;99.90
19085;DHT22;9675;51.538;6.728;2023-08-17T05:55:01;20.10;99.90
19085;DHT22;9675;51.538;6.728;2023-08-17T05:57:29;20.20;99.90
19085;DHT22;9675;51.538;6.728;2023-08-17T05:59:56;20.20;99.90
19085;DHT22;9675;51.538;6.728;2023-08-17T06:02:24;20.20;99.90
19085;DHT22;9675;51.538;6.728;2023-08-17T06:04:50;20.20;99.90
19085;DHT22;9675;51.538;6.728;2023-08-17T06:07:18;20.20;99.90
19085;DHT22;9675;51.538;6.728;2023-08-17T06:09:45;20.10;99.90
19085;DHT22;9675;51.538;6.728;2023-08-17T06:12:11;20.10;99.90
19085;DHT22;9675;51.538;6.728;2023-08-17T06:14:40;20.10;99.90
19085;DHT22;9675;51.538;6.728;2023-08-17T06:17:08;20.10;99.90
19085;DHT22;9675;51.538;6.728;2023-08-17T06:19:35;20.10;99.90
19085;DHT22;9675;51.538;6.728;2023-08-17T06:22:02;20.10;99.90
19085;DHT22;9675;51.538;6.728;2023-08-17T06:24:29;20.10;99.90
19085;DHT22;9675;51.538;6.728;2023-08-17T06:26:56;20.10;99.90
19085;DHT22;9675;51.538;6.728;2023-08-17T06:29:23;20.10;99.90
19085;DHT22;9675;51.538;6.728;2023-08-17T06:31:52;20.10;99.90
19085;DHT22;9675;51.538;6.728;2023-08-17T06:34:18;20.10;99.90
19085;DHT22;9675;51.538;6.728;2023-08-17T06:36:57;20.10;99.90
19085;DHT22;9675;51.538;6.728;2023-08-17T06:39:25;20.10;99.90
19085;DHT22;9675;51.538;6.728;2023-08-17T06:41:52;20.10;99.90
19085;DHT22;9675;51.538;6.728;2023-08-17T06:44:19;20.10;99.90
19085;DHT22;9675;51.538;6.728;2023-08-17T06:46:46;20.10;99.90
19085;DHT22;9675;51.538;6.728;2023-08-17T06:49:15;20.10;99.90
19085;DHT22;9675;51.538;6.728;2023-08-17T06:51:42;20.00;99.90
19085;DHT22;9675;51.538;6.728;2023-08-17T06:54:09;20.10;99.90
19085;DHT22;9675;51.538;6.728;2023-08-17T06:56:36;20.10;99.90
19085;DHT22;9675;51.538;6.728;2023-08-17T06:59:03;20.10;99.90
19085;DHT22;9675;51.538;6.728;2023-08-17T07:01:30;20.10;99.90
19085;DHT22;9675;51.538;6.728;2023-08-17T07:03:57;20.10;99.90
19085;DHT22;9675;51.538;6.728;2023-08-17T07:06:26;20.20;99.90
19085;DHT22;9675;51.538;6.728;2023-08-17T07:08:54;20.20;99.90
19085;DHT22;9675;51.538;6.728;2023-08-17T07:11:22;20.20;99.90
19085;DHT22;9675;51.538;6.728;2023-08-17T07:13:49;20.20;99.90
19085;DHT22;9675;51.538;6.728;2023-08-17T07:16:16;20.20;99.90
19085;DHT22;9675;51.538;6.728;2023-08-17T07:18:43;20.20;99.90
19085;DHT22;9675;51.538;6.728;2023-08-17T07:21:10;20.20;99.90
19085;DHT22;9675;51.538;6.728;2023-08-17T07:23:39;20.20;99.90
19085;DHT22;9675;51.538;6.728;2023-08-17T07:26:06;20.20;99.90
19085;DHT22;9675;51.538;6.728;2023-08-17T07:28:33;20.20;99.90
19085;DHT22;9675;51.538;6.728;2023-08-17T07:31:00;20.20;99.90
19085;DHT22;9675;51.538;6.728;2023-08-17T07:33:27;20.20;99.90
19085;DHT22;9675;51.538;6.728;2023-08-17T07:35:54;20.20;99.90
19085;DHT22;9675;51.538;6.728;2023-08-17T07:38:21;20.20;99.90
19085;DHT22;9675;51.538;6.728;2023-08-17T07:40:50;20.20;99.90
19085;DHT22;9675;51.538;6.728;2023-08-17T07:43:17;20.20;99.90
19085;DHT22;9675;51.538;6.728;2023-08-17T07:45:44;20.20;99.90
19085;DHT22;9675;51.538;6.728;2023-08-17T07:48:11;20.20;99.90
19085;DHT22;9675;51.538;6.728;2023-08-17T07:50:38;20.20;99.90
19085;DHT22;9675;51.538;6.728;2023-08-17T07:53:05;20.20;99.90
19085;DHT22;9675;51.538;6.728;2023-08-17T07:55:32;20.20;99.90
19085;DHT22;9675;51.538;6.728;2023-08-17T07:58:00;20.20;99.90
19085;DHT22;9675;51.538;6.728;2023-08-17T08:00:28;20.30;99.90
19085;DHT22;9675;51.538;6.728;2023-08-17T08:02:55;20.20;99.90
19085;DHT22;9675;51.538;6.728;2023-08-17T08:05:22;20.20;99.90
19085;DHT22;9675;51.538;6.728;2023-08-17T08:07:49;20.20;99.90
19085;DHT22;9675;51.538;6.728;2023-08-17T08:10:16;20.20;99.90
19085;DHT22;9675;51.538;6.728;2023-08-17T08:12:44;20.20;99.90
19085;DHT22;9675;51.538;6.728;2023-08-17T08:15:13;20.20;99.90
19085;DHT22;9675;51.538;6.728;2023-08-17T08:17:41;20.30;99.90
19085;DHT22;9675;51.538;6.728;2023-08-17T08:20:09;20.30;99.90
19085;DHT22;9675;51.538;6.728;2023-08-17T08:22:37;20.30;99.90
19085;DHT22;9675;51.538;6.728;2023-08-17T08:25:04;20.30;99.90
19085;DHT22;9675;51.538;6.728;2023-08-17T08:27:32;20.30;99.90
19085;DHT22;9675;51.538;6.728;2023-08-17T08:29:59;20.30;99.90
19085;DHT22;9675;51.538;6.728;2023-08-17T08:32:28;20.30;99.90
19085;DHT22;9675;51.538;6.728;2023-08-17T08:34:55;20.30;99.90
19085;DHT22;9675;51.538;6.728;2023-08-17T08:37:22;20.30;99.90
19085;DHT22;9675;51.538;6.728;2023-08-17T08:39:49;20.30;99.90
19085;DHT22;9675;51.538;6.728;2023-08-17T08:42:16;20.30;99.90
19085;DHT22;9675;51.538;6.728;2023-08-17T08:44:44;20.40;99.90
19085;DHT22;9675;51.538;6.728;2023-08-17T08:47:12;20.40;99.90
19085;DHT22;9675;51.538;6.728;2023-08-17T08:49:45;20.40;99.90
19085;DHT22;9675;51.538;6.728;2023-08-17T08:52:22;20.30;99.90
19085;DHT22;9675;51.538;6.728;2023-08-17T08:54:54;20.30;99.90
19085;DHT22;9675;51.538;6.728;2023-08-17T08:57:24;20.40;99.90
19085;DHT22;9675;51.538;6.728;2023-08-17T08:59:54;20.40;99.90
19085;DHT22;9675;51.538;6.728;2023-08-17T09:02:23;20.40;99.90
19085;DHT22;9675;51.538;6.728;2023-08-17T09:04:52;20.50;99.90
19085;DHT22;9675;51.538;6.728;2023-08-17T09:07:20;20.50;99.90
19085;DHT22;9675;51.538;6.728;2023-08-17T09:09:48;20.40;99.90
19085;DHT22;9675;51.538;6.728;2023-08-17T09:12:16;20.40;99.90
19085;DHT22;9675;51.538;6.728;2023-08-17T09:14:43;20.40;99.90
19085;DHT22;9675;51.538;6.728;2023-08-17T09:17:10;20.50;99.90
19085;DHT22;9675;51.538;6.728;2023-08-17T09:19:37;20.50;99.90
19085;DHT22;9675;51.538;6.728;2023-08-17T09:22:05;20.50;99.90
19085;DHT22;9675;51.538;6.728;2023-08-17T09:24:34;20.50;99.90
19085;DHT22;9675;51.538;6.728;2023-08-17T09:27:02;20.50;99.90
19085;DHT22;9675;51.538;6.728;2023-08-17T09:29:31;20.60;99.90
19085;DHT22;9675;51.538;6.728;2023-08-17T09:32:04;20.60;99.90
19085;DHT22;9675;51.538;6.728;2023-08-17T09:34:32;20.60;99.90
19085;DHT22;9675;51.538;6.728;2023-08-17T09:37:03;20.60;99.90
19085;DHT22;9675;51.538;6.728;2023-08-17T09:39:31;20.60;99.90
19085;DHT22;9675;51.538;6.728;2023-08-17T09:41:59;20.60;99.90
19085;DHT22;9675;51.538;6.728;2023-08-17T09:44:27;20.70;99.90
19085;DHT22;9675;51.538;6.728;2023-08-17T09:46:55;20.60;99.90
19085;DHT22;9675;51.538;6.728;2023-08-17T09:49:23;20.70;99.90
19085;DHT22;9675;51.538;6.728;2023-08-17T09:51:51;20.70;99.90
19085;DHT22;9675;51.538;6.728;2023-08-17T09:54:22;20.70;99.90
19085;DHT22;9675;51.538;6.728;2023-08-17T09:56:52;20.70;99.90
19085;DHT22;9675;51.538;6.728;2023-08-17T09:59:20;20.70;99.90
19085;DHT22;9675;51.538;6.728;2023-08-17T10:01:50;20.70;99.90
19085;DHT22;9675;51.538;6.728;2023-08-17T10:04:20;20.70;99.90
19085;DHT22;9675;51.538;6.728;2023-08-17T10:06:52;20.70;99.90
19085;DHT22;9675;51.538;6.728;2023-08-17T10:09:34;20.70;99.90
19085;DHT22;9675;51.538;6.728;2023-08-17T10:12:10;20.70;99.90
19085;DHT22;9675;51.538;6.728;2023-08-17T10:14:42;20.70;99.90
19085;DHT22;9675;51.538;6.728;2023-08-17T10:17:21;20.80;99.90
19085;DHT22;9675;51.538;6.728;2023-08-17T10:19:54;20.80;99.90
19085;DHT22;9675;51.538;6.728;2023-08-17T10:22:27;20.80;99.90
19085;DHT22;9675;51.538;6.728;2023-08-17T10:25:00;20.90;99.90
19085;DHT22;9675;51.538;6.728;2023-08-17T10:27:29;20.90;99.90
19085;DHT22;9675;51.538;6.728;2023-08-17T10:29:58;20.90;99.90
19085;DHT22;9675;51.538;6.728;2023-08-17T10:32:27;20.90;99.90
19085;DHT22;9675;51.538;6.728;2023-08-17T10:34:55;20.90;99.90
19085;DHT22;9675;51.538;6.728;2023-08-17T10:37:23;20.90;99.90
19085;DHT22;9675;51.538;6.728;2023-08-17T10:39:51;20.90;99.90
19085;DHT22;9675;51.538;6.728;2023-08-17T10:42:31;20.90;99.90
19085;DHT22;9675;51.538;6.728;2023-08-17T10:45:00;20.90;99.90
19085;DHT22;9675;51.538;6.728;2023-08-17T10:47:29;21.00;99.90
19085;DHT22;9675;51.538;6.728;2023-08-17T10:49:59;21.00;99.90
19085;DHT22;9675;51.538;6.728;2023-08-17T10:52:32;21.00;99.90
19085;DHT22;9675;51.538;6.728;2023-08-17T10:55:00;21.00;99.90
19085;DHT22;9675;51.538;6.728;2023-08-17T10:57:34;21.00;99.90
19085;DHT22;9675;51.538;6.728;2023-08-17T11:00:13;21.00;99.90
19085;DHT22;9675;51.538;6.728;2023-08-17T11:02:44;21.00;99.90
19085;DHT22;9675;51.538;6.728;2023-08-17T11:05:11;21.10;99.90
19085;DHT22;9675;51.538;6.728;2023-08-17T11:07:40;21.00;99.90
19085;DHT22;9675;51.538;6.728;2023-08-17T11:10:28;21.10;99.90
19085;DHT22;9675;51.538;6.728;2023-08-17T11:12:57;21.10;99.90
19085;DHT22;9675;51.538;6.728;2023-08-17T11:15:35;21.10;99.90
19085;DHT22;9675;51.538;6.728;2023-08-17T11:18:08;21.20;99.90
19085;DHT22;9675;51.538;6.728;2023-08-17T11:20:37;21.20;99.90
19085;DHT22;9675;51.538;6.728;2023-08-17T11:23:06;21.20;99.90
19085;DHT22;9675;51.538;6.728;2023-08-17T11:25:37;21.20;99.90
19085;DHT22;9675;51.538;6.728;2023-08-17T11:28:08;21.30;99.90
19085;DHT22;9675;51.538;6.728;2023-08-17T11:30:36;21.30;99.90
19085;DHT22;9675;51.538;6.728;2023-08-17T11:33:05;21.30;99.90
19085;DHT22;9675;51.538;6.728;2023-08-17T11:35:33;21.40;99.90
19085;DHT22;9675;51.538;6.728;2023-08-17T11:38:00;21.40;99.90
19085;DHT22;9675;51.538;6.728;2023-08-17T11:40:27;21.40;99.90
19085;DHT22;9675;51.538;6.728;2023-08-17T11:42:54;21.40;99.90
19085;DHT22;9675;51.538;6.728;2023-08-17T11:45:23;21.40;99.90
19085;DHT22;9675;51.538;6.728;2023-08-17T11:47:51;21.40;99.90
19085;DHT22;9675;51.538;6.728;2023-08-17T11:50:19;21.50;99.90
19085;DHT22;9675;51.538;6.728;2023-08-17T11:52:45;21.50;99.90
19085;DHT22;9675;51.538;6.728;2023-08-17T11:55:16;21.50;99.90
19085;DHT22;9675;51.538;6.728;2023-08-17T11:57:45;21.50;99.90
19085;DHT22;9675;51.538;6.728;2023-08-17T12:00:17;21.60;99.90
19085;DHT22;9675;51.538;6.728;2023-08-17T12:02:49;21.60;99.90
19085;DHT22;9675;51.538;6.728;2023-08-17T12:05:20;21.60;99.90
19085;DHT22;9675;51.538;6.728;2023-08-17T12:07:49;21.60;99.90
19085;DHT22;9675;51.538;6.728;2023-08-17T12:10:17;21.70;99.90
19085;DHT22;9675;51.538;6.728;2023-08-17T12:12:47;21.70;99.90
19085;DHT22;9675;51.538;6.728;2023-08-17T12:15:16;21.80;99.90
19085;DHT22;9675;51.538;6.728;2023-08-17T12:17:49;21.70;99.90
19085;DHT22;9675;51.538;6.728;2023-08-17T12:20:18;21.70;99.90
19085;DHT22;9675;51.538;6.728;2023-08-17T12:22:47;21.80;99.90
19085;DHT22;9675;51.538;6.728;2023-08-17T12:25:14;21.80;99.90
19085;DHT22;9675;51.538;6.728;2023-08-17T12:27:42;21.80;99.90
19085;DHT22;9675;51.538;6.728;2023-08-17T12:30:13;21.80;99.90
19085;DHT22;9675;51.538;6.728;2023-08-17T12:32:52;21.70;99.90
19085;DHT22;9675;51.538;6.728;2023-08-17T12:35:19;21.80;99.90
19085;DHT22;9675;51.538;6.728;2023-08-17T12:37:49;21.90;99.90
19085;DHT22;9675;51.538;6.728;2023-08-17T12:40:16;21.80;99.90
19085;DHT22;9675;51.538;6.728;2023-08-17T12:42:43;21.90;99.90
19085;DHT22;9675;51.538;6.728;2023-08-17T12:45:10;21.90;99.90
19085;DHT22;9675;51.538;6.728;2023-08-17T12:47:38;22.00;99.90
19085;DHT22;9675;51.538;6.728;2023-08-17T12:50:07;22.00;99.90
19085;DHT22;9675;51.538;6.728;2023-08-17T12:52:34;22.00;99.90
19085;DHT22;9675;51.538;6.728;2023-08-17T12:55:02;22.00;99.90
19085;DHT22;9675;51.538;6.728;2023-08-17T12:57:29;22.00;99.90
19085;DHT22;9675;51.538;6.728;2023-08-17T12:59:56;22.10;99.90
19085;DHT22;9675;51.538;6.728;2023-08-17T13:02:23;22.10;99.90
19085;DHT22;9675;51.538;6.728;2023-08-17T13:04:50;22.10;99.90
19085;DHT22;9675;51.538;6.728;2023-08-17T13:07:19;22.10;99.90
19085;DHT22;9675;51.538;6.728;2023-08-17T13:09:46;22.10;99.90
19085;DHT22;9675;51.538;6.728;2023-08-17T13:12:13;22.10;99.90
19085;DHT22;9675;51.538;6.728;2023-08-17T13:14:40;22.10;99.90
19085;DHT22;9675;51.538;6.728;2023-08-17T13:17:08;22.10;99.90
19085;DHT22;9675;51.538;6.728;2023-08-17T13:19:35;22.20;99.90
19085;DHT22;9675;51.538;6.728;2023-08-17T13:22:02;22.10;99.90
19085;DHT22;9675;51.538;6.728;2023-08-17T13:24:31;22.20;99.90
19085;DHT22;9675;51.538;6.728;2023-08-17T13:26:58;22.20;99.90
19085;DHT22;9675;51.538;6.728;2023-08-17T13:29:25;22.30;99.90
19085;DHT22;9675;51.538;6.728;2023-08-17T13:31:52;22.30;99.90
19085;DHT22;9675;51.538;6.728;2023-08-17T13:34:19;22.30;99.90
19085;DHT22;9675;51.538;6.728;2023-08-17T13:36:46;22.30;99.90
19085;DHT22;9675;51.538;6.728;2023-08-17T13:39:13;22.30;99.90
19085;DHT22;9675;51.538;6.728;2023-08-17T13:41:42;22.30;99.90
19085;DHT22;9675;51.538;6.728;2023-08-17T13:44:09;22.30;99.90
19085;DHT22;9675;51.538;6.728;2023-08-17T13:46:36;22.30;99.90
19085;DHT22;9675;51.538;6.728;2023-08-17T13:49:04;22.40;99.90
19085;DHT22;9675;51.538;6.728;2023-08-17T13:51:31;22.40;99.90
19085;DHT22;9675;51.538;6.728;2023-08-17T13:53:58;22.40;99.90
19085;DHT22;9675;51.538;6.728;2023-08-17T13:56:25;22.50;99.90
19085;DHT22;9675;51.538;6.728;2023-08-17T13:58:53;22.50;99.90
19085;DHT22;9675;51.538;6.728;2023-08-17T14:01:20;22.50;99.90
19085;DHT22;9675;51.538;6.728;2023-08-17T14:03:47;22.50;99.90
19085;DHT22;9675;51.538;6.728;2023-08-17T14:06:14;22.50;99.90
19085;DHT22;9675;51.538;6.728;2023-08-17T14:08:42;22.50;99.90
19085;DHT22;9675;51.538;6.728;2023-08-17T14:11:09;22.50;99.90
19085;DHT22;9675;51.538;6.728;2023-08-17T14:13:36;22.60;99.90
19085;DHT22;9675;51.538;6.728;2023-08-17T14:16:06;22.60;99.90
19085;DHT22;9675;51.538;6.728;2023-08-17T14:18:33;22.60;99.90
19085;DHT22;9675;51.538;6.728;2023-08-17T14:21:00;22.60;99.90
19085;DHT22;9675;51.538;6.728;2023-08-17T14:23:27;22.60;99.90
19085;DHT22;9675;51.538;6.728;2023-08-17T14:25:54;22.60;99.90
19085;DHT22;9675;51.538;6.728;2023-08-17T14:28:21;22.60;99.90
19085;DHT22;9675;51.538;6.728;2023-08-17T14:30:48;22.60;99.90
19085;DHT22;9675;51.538;6.728;2023-08-17T14:33:16;22.70;99.90
19085;DHT22;9675;51.538;6.728;2023-08-17T14:35:43;22.60;99.90
19085;DHT22;9675;51.538;6.728;2023-08-17T14:38:10;22.60;99.90
19085;DHT22;9675;51.538;6.728;2023-08-17T14:40:41;22.70;99.90
19085;DHT22;9675;51.538;6.728;2023-08-17T14:43:09;22.70;99.90
19085;DHT22;9675;51.538;6.728;2023-08-17T14:45:37;22.70;99.90
19085;DHT22;9675;51.538;6.728;2023-08-17T14:48:04;22.70;99.90
19085;DHT22;9675;51.538;6.728;2023-08-17T14:50:34;22.70;99.90
19085;DHT22;9675;51.538;6.728;2023-08-17T14:53:01;22.70;99.90
19085;DHT22;9675;51.538;6.728;2023-08-17T14:55:29;22.70;99.90
19085;DHT22;9675;51.538;6.728;2023-08-17T14:57:56;22.70;99.90
19085;DHT22;9675;51.538;6.728;2023-08-17T15:00:23;22.70;99.90
19085;DHT22;9675;51.538;6.728;2023-08-17T15:02:51;22.80;99.90
19085;DHT22;9675;51.538;6.728;2023-08-17T15:05:20;22.80;99.90
19085;DHT22;9675;51.538;6.728;2023-08-17T15:07:48;22.70;99.90
19085;DHT22;9675;51.538;6.728;2023-08-17T15:10:16;22.70;99.90
19085;DHT22;9675;51.538;6.728;2023-08-17T15:12:43;22.80;99.90
19085;DHT22;9675;51.538;6.728;2023-08-17T15:15:10;22.80;99.90
19085;DHT22;9675;51.538;6.728;2023-08-17T15:17:37;22.80;99.90
19085;DHT22;9675;51.538;6.728;2023-08-17T15:20:05;22.80;99.90
19085;DHT22;9675;51.538;6.728;2023-08-17T15:22:33;22.80;99.90
19085;DHT22;9675;51.538;6.728;2023-08-17T15:25:01;22.80;99.90
19085;DHT22;9675;51.538;6.728;2023-08-17T15:27:28;22.80;99.90
19085;DHT22;9675;51.538;6.728;2023-08-17T15:29:55;22.80;99.90
19085;DHT22;9675;51.538;6.728;2023-08-17T15:32:22;22.80;99.90
19085;DHT22;9675;51.538;6.728;2023-08-17T15:34:49;22.70;99.90
19085;DHT22;9675;51.538;6.728;2023-08-17T15:37:16;22.70;99.90
19085;DHT22;9675;51.538;6.728;2023-08-17T15:39:43;22.70;99.90
19085;DHT22;9675;51.538;6.728;2023-08-17T15:42:12;22.70;99.90
19085;DHT22;9675;51.538;6.728;2023-08-17T15:44:39;22.70;99.90
19085;DHT22;9675;51.538;6.728;2023-08-17T15:47:06;22.70;99.90
19085;DHT22;9675;51.538;6.728;2023-08-17T15:49:33;22.70;99.90
19085;DHT22;9675;51.538;6.728;2023-08-17T15:52:00;22.60;99.90